Alva Dupre — WDG3104 — position and weather

sailwx.info

Track history (hours):
 
Tides and Currents Weather Stations Pressure Air Temp Water Temp Dewpoint Dewpoint Depression Visibility Wind Speed Wind Dir Waves Ship Positions

Alva Dupre

Owner: Dupre Marine Transportation Inc, Houma, LA. More information available from US FCC via Universal Licensing System and Coast Guard Vessel Documentation Center.

Last reported at 2018-Jun-20 01:15 UTC. Time now 2018-Jun-20 09:31 UTC.
Position N 29°26' W 094°43'.

Length 23 m.

Type: . MMSI: 367522540.

Date/timePositionNaut miles runAvg speedWind from/ knotsBaromVisibWave heightAir tempDewpointWater temp
2018-Jun-20 01:15N 29°26' W 094°43'0 0.0
2018-Jun-20 00:57N 29°26' W 094°43'0 0.0
2018-Jun-18 13:09N 29°25' W 094°43'0 0.0
2018-Jun-18 12:42N 29°25' W 094°43'0 0.0
2018-Jun-18 12:27N 29°25' W 094°43'0 0.0
2018-Jun-18 10:24N 29°25' W 094°43'0 0.0
2018-Jun-18 10:00N 29°25' W 094°43'0 0.0
2018-Jun-18 07:11N 29°25' W 094°43'0 0.0
2018-Jun-18 06:41N 29°25' W 094°43'0 0.0
2018-Jun-18 05:11N 29°25' W 094°43'0 0.0
2018-Jun-18 03:59N 29°25' W 094°43'0 0.0
2018-Jun-18 02:38N 29°25' W 094°43'0 0.0
2018-Jun-17 23:05N 29°25' W 094°43'0 0.0
2018-Jun-17 22:59N 29°25' W 094°43'0 0.0
2018-Jun-17 22:20N 29°25' W 094°43'0 0.0
2018-Jun-16 17:49N 29°25' W 094°43'0 0.0
2018-Jun-16 16:43N 29°25' W 094°43'0 0.0
2018-Jun-16 16:19N 29°25' W 094°43'0 0.0
2018-Jun-16 15:01N 29°25' W 094°43'0 0.1
2018-Jun-16 14:58N 29°25' W 094°43'0 0.0
2018-Jun-16 14:10N 29°25' W 094°43'0 0.0
2018-Jun-16 01:50N 29°25' W 094°43'0 0.0
2018-Jun-16 01:30N 29°25' W 094°43'1 2.2
2018-Jun-16 01:00N 29°25' W 094°44'2 4.9
2018-Jun-16 00:30N 29°23' W 094°46'0 0.0
2018-Jun-15 23:55N 29°23' W 094°46'0 0.0
2018-Jun-15 23:28N 29°23' W 094°46'0 0.1
2018-Jun-15 22:59N 29°23' W 094°46'2 3.3
2018-Jun-15 22:30N 29°24' W 094°45'1 2.2
2018-Jun-15 21:57N 29°25' W 094°44'1 0.0
2018-Jun-15 04:49N 29°25' W 094°43'1 2.9
2018-Jun-15 04:30N 29°25' W 094°44'3 5.5
2018-Jun-15 04:00N 29°23' W 094°46'3 5.2
2018-Jun-15 03:26N 29°20' W 094°47'1 1.7
2018-Jun-15 03:00N 29°19' W 094°47'0 0.0
2018-Jun-15 02:30N 29°19' W 094°47'0 0.0
2018-Jun-15 02:00N 29°19' W 094°47'0 0.0
2018-Jun-15 01:31N 29°19' W 094°47'3 5.8
2018-Jun-15 01:00N 29°22' W 094°47'4 8.2
2018-Jun-15 00:30N 29°25' W 094°44'0 0.6
2018-Jun-14 23:46N 29°25' W 094°43'0 0.0
2018-Jun-14 23:29N 29°25' W 094°43'1 1.2
2018-Jun-14 23:00N 29°25' W 094°44'3 5.8
2018-Jun-14 22:30N 29°23' W 094°46'2 4.0
2018-Jun-14 21:59N 29°23' W 094°49'17 6.1
2018-Jun-14 19:06N 29°38' W 094°58'1 6.4
2018-Jun-14 19:00N 29°39' W 094°58'5 0.1
2018-Jun-12 21:00N 29°34' W 094°56'14 5.9
2018-Jun-12 18:40N 29°22' W 094°48'1 3.6
2018-Jun-12 18:29N 29°22' W 094°47'2 5.0
2018-Jun-12 18:00N 29°24' W 094°45'2 0.1
2018-Jun-11 02:20N 29°26' W 094°43'  
Track history (hours):
 
Tides and Currents Weather Stations Pressure Air Temp Water Temp Dewpoint Dewpoint Depression Visibility Wind Speed Wind Dir Waves Ship Positions

Alva Dupre

Owner: Dupre Marine Transportation Inc, Houma, LA. More information available from US FCC via Universal Licensing System and Coast Guard Vessel Documentation Center.

Last reported at 2018-Jun-20 01:15 UTC. Time now 2018-Jun-20 09:31 UTC.
Position N 29°26' W 094°43'.

Length 23 m.

Type: . MMSI: 367522540.

Date/timePositionNaut miles runAvg speedWind from/ knotsBaromVisibWave heightAir tempDewpointWater temp
2018-Jun-20 01:15N 29°26' W 094°43'0 0.0
2018-Jun-20 00:57N 29°26' W 094°43'0 0.0
2018-Jun-18 13:09N 29°25' W 094°43'0 0.0
2018-Jun-18 12:42N 29°25' W 094°43'0 0.0
2018-Jun-18 12:27N 29°25' W 094°43'0 0.0
2018-Jun-18 10:24N 29°25' W 094°43'0 0.0
2018-Jun-18 10:00N 29°25' W 094°43'0 0.0
2018-Jun-18 07:11N 29°25' W 094°43'0 0.0
2018-Jun-18 06:41N 29°25' W 094°43'0 0.0
2018-Jun-18 05:11N 29°25' W 094°43'0 0.0
2018-Jun-18 03:59N 29°25' W 094°43'0 0.0
2018-Jun-18 02:38N 29°25' W 094°43'0 0.0
2018-Jun-17 23:05N 29°25' W 094°43'0 0.0
2018-Jun-17 22:59N 29°25' W 094°43'0 0.0
2018-Jun-17 22:20N 29°25' W 094°43'0 0.0
2018-Jun-16 17:49N 29°25' W 094°43'0 0.0
2018-Jun-16 16:43N 29°25' W 094°43'0 0.0
2018-Jun-16 16:19N 29°25' W 094°43'0 0.0
2018-Jun-16 15:01N 29°25' W 094°43'0 0.1
2018-Jun-16 14:58N 29°25' W 094°43'0 0.0
2018-Jun-16 14:10N 29°25' W 094°43'0 0.0
2018-Jun-16 01:50N 29°25' W 094°43'0 0.0
2018-Jun-16 01:30N 29°25' W 094°43'1 2.2
2018-Jun-16 01:00N 29°25' W 094°44'2 4.9
2018-Jun-16 00:30N 29°23' W 094°46'0 0.0
2018-Jun-15 23:55N 29°23' W 094°46'0 0.0
2018-Jun-15 23:28N 29°23' W 094°46'0 0.1
2018-Jun-15 22:59N 29°23' W 094°46'2 3.3
2018-Jun-15 22:30N 29°24' W 094°45'1 2.2
2018-Jun-15 21:57N 29°25' W 094°44'1 0.0
2018-Jun-15 04:49N 29°25' W 094°43'1 2.9
2018-Jun-15 04:30N 29°25' W 094°44'3 5.5
2018-Jun-15 04:00N 29°23' W 094°46'3 5.2
2018-Jun-15 03:26N 29°20' W 094°47'1 1.7
2018-Jun-15 03:00N 29°19' W 094°47'0 0.0
2018-Jun-15 02:30N 29°19' W 094°47'0 0.0
2018-Jun-15 02:00N 29°19' W 094°47'0 0.0
2018-Jun-15 01:31N 29°19' W 094°47'3 5.8
2018-Jun-15 01:00N 29°22' W 094°47'4 8.2
2018-Jun-15 00:30N 29°25' W 094°44'0 0.6
2018-Jun-14 23:46N 29°25' W 094°43'0 0.0
2018-Jun-14 23:29N 29°25' W 094°43'1 1.2
2018-Jun-14 23:00N 29°25' W 094°44'3 5.8
2018-Jun-14 22:30N 29°23' W 094°46'2 4.0
2018-Jun-14 21:59N 29°23' W 094°49'17 6.1
2018-Jun-14 19:06N 29°38' W 094°58'1 6.4
2018-Jun-14 19:00N 29°39' W 094°58'5 0.1
2018-Jun-12 21:00N 29°34' W 094°56'14 5.9
2018-Jun-12 18:40N 29°22' W 094°48'1 3.6
2018-Jun-12 18:29N 29°22' W 094°47'2 5.0
2018-Jun-12 18:00N 29°24' W 094°45'2 0.1
2018-Jun-11 02:20N 29°26' W 094°43'  

Dump ship's entire track history